sensor_id;sensor_type;location;lat;lon;timestamp;P1;durP1;ratioP1;P2;durP2;ratioP2
6378;SDS011;3222;48.858;10.128;2023-09-18T00:01:54;4.23;;;3.17;;
6378;SDS011;3222;48.858;10.128;2023-09-18T00:04:20;3.63;;;3.20;;
6378;SDS011;3222;48.858;10.128;2023-09-18T00:06:46;3.42;;;3.13;;
6378;SDS011;3222;48.858;10.128;2023-09-18T00:09:11;3.33;;;3.10;;
6378;SDS011;3222;48.858;10.128;2023-09-18T00:11:39;3.20;;;3.00;;
6378;SDS011;3222;48.858;10.128;2023-09-18T00:14:05;4.00;;;3.10;;
6378;SDS011;3222;48.858;10.128;2023-09-18T00:16:32;4.37;;;3.30;;
6378;SDS011;3222;48.858;10.128;2023-09-18T00:18:58;3.70;;;3.40;;
6378;SDS011;3222;48.858;10.128;2023-09-18T00:21:24;3.70;;;3.27;;
6378;SDS011;3222;48.858;10.128;2023-09-18T00:23:50;3.30;;;3.00;;
6378;SDS011;3222;48.858;10.128;2023-09-18T00:26:16;3.23;;;3.00;;
6378;SDS011;3222;48.858;10.128;2023-09-18T00:28:46;3.05;;;2.85;;
6378;SDS011;3222;48.858;10.128;2023-09-18T00:31:12;3.20;;;3.00;;
6378;SDS011;3222;48.858;10.128;2023-09-18T00:33:37;3.85;;;3.22;;
6378;SDS011;3222;48.858;10.128;2023-09-18T00:36:03;3.10;;;2.90;;
6378;SDS011;3222;48.858;10.128;2023-09-18T00:38:29;5.18;;;2.92;;
6378;SDS011;3222;48.858;10.128;2023-09-18T00:40:55;4.97;;;3.00;;
6378;SDS011;3222;48.858;10.128;2023-09-18T00:43:20;3.37;;;3.07;;
6378;SDS011;3222;48.858;10.128;2023-09-18T00:45:46;3.03;;;2.83;;
6378;SDS011;3222;48.858;10.128;2023-09-18T00:48:16;3.35;;;2.70;;
6378;SDS011;3222;48.858;10.128;2023-09-18T00:50:43;3.00;;;2.80;;
6378;SDS011;3222;48.858;10.128;2023-09-18T00:53:10;2.92;;;2.65;;
6378;SDS011;3222;48.858;10.128;2023-09-18T00:55:38;2.60;;;2.40;;
6378;SDS011;3222;48.858;10.128;2023-09-18T00:58:05;2.90;;;2.70;;
6378;SDS011;3222;48.858;10.128;2023-09-18T01:00:32;3.35;;;3.00;;
6378;SDS011;3222;48.858;10.128;2023-09-18T01:02:57;2.78;;;2.58;;
6378;SDS011;3222;48.858;10.128;2023-09-18T01:05:24;3.22;;;2.92;;
6378;SDS011;3222;48.858;10.128;2023-09-18T01:07:50;3.30;;;2.72;;
6378;SDS011;3222;48.858;10.128;2023-09-18T01:10:16;3.08;;;2.70;;
6378;SDS011;3222;48.858;10.128;2023-09-18T01:15:29;3.20;;;3.00;;
6378;SDS011;3222;48.858;10.128;2023-09-18T01:18:00;3.53;;;3.05;;
6378;SDS011;3222;48.858;10.128;2023-09-18T01:20:28;2.90;;;2.70;;
6378;SDS011;3222;48.858;10.128;2023-09-18T01:22:53;2.90;;;2.60;;
6378;SDS011;3222;48.858;10.128;2023-09-18T01:25:19;2.88;;;2.70;;
6378;SDS011;3222;48.858;10.128;2023-09-18T01:27:46;4.22;;;2.97;;
6378;SDS011;3222;48.858;10.128;2023-09-18T01:30:14;2.85;;;2.65;;
6378;SDS011;3222;48.858;10.128;2023-09-18T01:32:42;2.83;;;2.45;;
6378;SDS011;3222;48.858;10.128;2023-09-18T01:35:09;2.90;;;2.40;;
6378;SDS011;3222;48.858;10.128;2023-09-18T01:37:35;4.18;;;2.33;;
6378;SDS011;3222;48.858;10.128;2023-09-18T01:40:03;2.60;;;2.40;;
6378;SDS011;3222;48.858;10.128;2023-09-18T01:42:32;2.40;;;2.20;;
6378;SDS011;3222;48.858;10.128;2023-09-18T01:45:00;2.70;;;2.40;;
6378;SDS011;3222;48.858;10.128;2023-09-18T01:47:26;2.28;;;2.17;;
6378;SDS011;3222;48.858;10.128;2023-09-18T01:49:54;2.95;;;2.50;;
6378;SDS011;3222;48.858;10.128;2023-09-18T01:52:20;4.50;;;3.03;;
6378;SDS011;3222;48.858;10.128;2023-09-18T01:54:46;2.92;;;2.67;;
6378;SDS011;3222;48.858;10.128;2023-09-18T01:57:12;2.47;;;2.28;;
6378;SDS011;3222;48.858;10.128;2023-09-18T01:59:38;3.03;;;2.78;;
6378;SDS011;3222;48.858;10.128;2023-09-18T02:02:04;4.70;;;2.63;;
6378;SDS011;3222;48.858;10.128;2023-09-18T02:04:32;3.47;;;2.75;;
6378;SDS011;3222;48.858;10.128;2023-09-18T02:06:59;3.88;;;2.80;;
6378;SDS011;3222;48.858;10.128;2023-09-18T02:09:25;3.00;;;2.70;;
6378;SDS011;3222;48.858;10.128;2023-09-18T02:11:51;5.22;;;2.92;;
6378;SDS011;3222;48.858;10.128;2023-09-18T02:14:16;2.85;;;2.35;;
6378;SDS011;3222;48.858;10.128;2023-09-18T02:16:42;2.78;;;2.58;;
6378;SDS011;3222;48.858;10.128;2023-09-18T02:19:10;6.15;;;2.67;;
6378;SDS011;3222;48.858;10.128;2023-09-18T02:21:36;2.75;;;2.35;;
6378;SDS011;3222;48.858;10.128;2023-09-18T02:24:04;4.45;;;2.50;;
6378;SDS011;3222;48.858;10.128;2023-09-18T02:26:30;5.13;;;2.53;;
6378;SDS011;3222;48.858;10.128;2023-09-18T02:28:58;5.88;;;2.65;;
6378;SDS011;3222;48.858;10.128;2023-09-18T02:31:24;4.80;;;2.65;;
6378;SDS011;3222;48.858;10.128;2023-09-18T02:33:50;5.20;;;2.60;;
6378;SDS011;3222;48.858;10.128;2023-09-18T02:36:16;2.88;;;2.50;;
6378;SDS011;3222;48.858;10.128;2023-09-18T02:38:42;6.53;;;2.47;;
6378;SDS011;3222;48.858;10.128;2023-09-18T02:41:08;5.68;;;2.33;;
6378;SDS011;3222;48.858;10.128;2023-09-18T02:43:34;6.05;;;2.80;;
6378;SDS011;3222;48.858;10.128;2023-09-18T02:46:00;5.07;;;2.85;;
6378;SDS011;3222;48.858;10.128;2023-09-18T02:48:26;9.20;;;3.13;;
6378;SDS011;3222;48.858;10.128;2023-09-18T02:50:51;3.33;;;2.60;;
6378;SDS011;3222;48.858;10.128;2023-09-18T02:53:18;5.32;;;2.67;;
6378;SDS011;3222;48.858;10.128;2023-09-18T02:55:49;5.47;;;2.72;;
6378;SDS011;3222;48.858;10.128;2023-09-18T02:58:16;4.60;;;3.15;;
6378;SDS011;3222;48.858;10.128;2023-09-18T03:00:43;3.70;;;2.95;;
6378;SDS011;3222;48.858;10.128;2023-09-18T03:03:09;4.80;;;3.00;;
6378;SDS011;3222;48.858;10.128;2023-09-18T03:05:35;3.00;;;2.78;;
6378;SDS011;3222;48.858;10.128;2023-09-18T03:08:02;3.90;;;3.28;;
6378;SDS011;3222;48.858;10.128;2023-09-18T03:10:32;3.17;;;2.88;;
6378;SDS011;3222;48.858;10.128;2023-09-18T03:13:02;4.15;;;3.03;;
6378;SDS011;3222;48.858;10.128;2023-09-18T03:15:29;3.72;;;2.80;;
6378;SDS011;3222;48.858;10.128;2023-09-18T03:17:56;4.82;;;3.15;;
6378;SDS011;3222;48.858;10.128;2023-09-18T03:20:23;4.82;;;2.80;;
6378;SDS011;3222;48.858;10.128;2023-09-18T03:22:53;4.85;;;3.00;;
6378;SDS011;3222;48.858;10.128;2023-09-18T03:25:20;6.03;;;2.70;;
6378;SDS011;3222;48.858;10.128;2023-09-18T03:27:47;6.03;;;3.28;;
6378;SDS011;3222;48.858;10.128;2023-09-18T03:30:13;3.50;;;2.50;;
6378;SDS011;3222;48.858;10.128;2023-09-18T03:32:41;5.10;;;2.25;;
6378;SDS011;3222;48.858;10.128;2023-09-18T03:35:08;8.52;;;2.65;;
6378;SDS011;3222;48.858;10.128;2023-09-18T03:37:43;6.32;;;2.90;;
6378;SDS011;3222;48.858;10.128;2023-09-18T03:40:09;4.70;;;2.42;;
6378;SDS011;3222;48.858;10.128;2023-09-18T03:42:35;6.03;;;2.45;;
6378;SDS011;3222;48.858;10.128;2023-09-18T03:45:01;3.45;;;2.25;;
6378;SDS011;3222;48.858;10.128;2023-09-18T03:47:28;3.80;;;2.25;;
6378;SDS011;3222;48.858;10.128;2023-09-18T03:49:54;8.85;;;2.35;;
6378;SDS011;3222;48.858;10.128;2023-09-18T03:52:20;7.22;;;2.63;;
6378;SDS011;3222;48.858;10.128;2023-09-18T03:54:45;4.50;;;2.20;;
6378;SDS011;3222;48.858;10.128;2023-09-18T03:57:11;7.85;;;2.90;;
6378;SDS011;3222;48.858;10.128;2023-09-18T03:59:37;7.35;;;2.70;;
6378;SDS011;3222;48.858;10.128;2023-09-18T04:02:02;6.05;;;2.20;;
6378;SDS011;3222;48.858;10.128;2023-09-18T04:04:28;6.97;;;2.50;;
6378;SDS011;3222;48.858;10.128;2023-09-18T04:06:55;3.75;;;2.58;;
6378;SDS011;3222;48.858;10.128;2023-09-18T04:09:20;8.30;;;2.72;;
6378;SDS011;3222;48.858;10.128;2023-09-18T04:11:46;12.85;;;3.30;;
6378;SDS011;3222;48.858;10.128;2023-09-18T04:14:12;6.63;;;2.70;;
6378;SDS011;3222;48.858;10.128;2023-09-18T04:16:37;7.47;;;2.65;;
6378;SDS011;3222;48.858;10.128;2023-09-18T04:19:06;9.50;;;2.60;;
6378;SDS011;3222;48.858;10.128;2023-09-18T04:21:32;8.05;;;2.30;;
6378;SDS011;3222;48.858;10.128;2023-09-18T04:23:58;11.90;;;5.78;;
6378;SDS011;3222;48.858;10.128;2023-09-18T04:26:24;14.27;;;7.38;;
6378;SDS011;3222;48.858;10.128;2023-09-18T04:28:57;19.77;;;13.18;;
6378;SDS011;3222;48.858;10.128;2023-09-18T04:31:24;22.13;;;13.73;;
6378;SDS011;3222;48.858;10.128;2023-09-18T04:33:50;19.63;;;12.30;;
6378;SDS011;3222;48.858;10.128;2023-09-18T04:36:15;11.80;;;7.35;;
6378;SDS011;3222;48.858;10.128;2023-09-18T04:38:41;7.82;;;4.85;;
6378;SDS011;3222;48.858;10.128;2023-09-18T04:41:07;10.77;;;4.70;;
6378;SDS011;3222;48.858;10.128;2023-09-18T04:43:36;11.32;;;4.65;;
6378;SDS011;3222;48.858;10.128;2023-09-18T04:46:03;4.88;;;3.28;;
6378;SDS011;3222;48.858;10.128;2023-09-18T04:48:33;7.32;;;3.38;;
6378;SDS011;3222;48.858;10.128;2023-09-18T04:51:00;4.57;;;3.22;;
6378;SDS011;3222;48.858;10.128;2023-09-18T04:53:27;5.75;;;3.10;;
6378;SDS011;3222;48.858;10.128;2023-09-18T04:55:52;5.03;;;2.90;;
6378;SDS011;3222;48.858;10.128;2023-09-18T04:58:18;4.25;;;3.40;;
6378;SDS011;3222;48.858;10.128;2023-09-18T05:00:44;6.05;;;3.15;;
6378;SDS011;3222;48.858;10.128;2023-09-18T05:03:11;4.68;;;3.08;;
6378;SDS011;3222;48.858;10.128;2023-09-18T05:05:38;3.97;;;2.90;;
6378;SDS011;3222;48.858;10.128;2023-09-18T05:08:06;3.90;;;2.97;;
6378;SDS011;3222;48.858;10.128;2023-09-18T05:10:35;5.38;;;2.85;;
6378;SDS011;3222;48.858;10.128;2023-09-18T05:13:01;3.97;;;2.40;;
6378;SDS011;3222;48.858;10.128;2023-09-18T05:15:27;7.32;;;2.92;;
6378;SDS011;3222;48.858;10.128;2023-09-18T05:17:58;6.78;;;2.70;;
6378;SDS011;3222;48.858;10.128;2023-09-18T05:20:28;11.13;;;2.67;;
6378;SDS011;3222;48.858;10.128;2023-09-18T05:22:55;3.17;;;2.80;;
6378;SDS011;3222;48.858;10.128;2023-09-18T05:25:22;7.75;;;2.97;;
6378;SDS011;3222;48.858;10.128;2023-09-18T05:27:50;7.95;;;2.95;;
6378;SDS011;3222;48.858;10.128;2023-09-18T05:30:28;3.88;;;2.35;;
6378;SDS011;3222;48.858;10.128;2023-09-18T05:33:02;5.32;;;2.55;;
6378;SDS011;3222;48.858;10.128;2023-09-18T05:38:16;3.33;;;2.20;;
6378;SDS011;3222;48.858;10.128;2023-09-18T05:40:43;2.88;;;2.30;;
6378;SDS011;3222;48.858;10.128;2023-09-18T05:43:10;4.07;;;2.50;;
6378;SDS011;3222;48.858;10.128;2023-09-18T05:45:36;4.60;;;2.58;;
6378;SDS011;3222;48.858;10.128;2023-09-18T05:48:03;3.88;;;2.20;;
6378;SDS011;3222;48.858;10.128;2023-09-18T05:50:33;3.85;;;2.35;;
6378;SDS011;3222;48.858;10.128;2023-09-18T05:53:00;4.38;;;2.28;;
6378;SDS011;3222;48.858;10.128;2023-09-18T05:55:31;5.10;;;2.20;;
6378;SDS011;3222;48.858;10.128;2023-09-18T05:57:57;4.30;;;2.30;;
6378;SDS011;3222;48.858;10.128;2023-09-18T06:00:23;2.90;;;2.40;;
6378;SDS011;3222;48.858;10.128;2023-09-18T06:02:49;3.58;;;2.50;;
6378;SDS011;3222;48.858;10.128;2023-09-18T06:05:16;4.00;;;2.30;;
6378;SDS011;3222;48.858;10.128;2023-09-18T06:07:46;4.55;;;2.20;;
6378;SDS011;3222;48.858;10.128;2023-09-18T06:10:12;6.20;;;2.03;;
6378;SDS011;3222;48.858;10.128;2023-09-18T06:12:39;5.63;;;2.40;;
6378;SDS011;3222;48.858;10.128;2023-09-18T06:15:08;4.30;;;2.28;;
6378;SDS011;3222;48.858;10.128;2023-09-18T06:17:41;4.90;;;2.08;;
6378;SDS011;3222;48.858;10.128;2023-09-18T06:20:08;5.93;;;3.42;;
6378;SDS011;3222;48.858;10.128;2023-09-18T06:22:35;6.43;;;3.20;;
6378;SDS011;3222;48.858;10.128;2023-09-18T06:25:06;5.75;;;3.45;;
6378;SDS011;3222;48.858;10.128;2023-09-18T06:27:35;5.97;;;2.85;;
6378;SDS011;3222;48.858;10.128;2023-09-18T06:30:02;4.63;;;2.80;;
6378;SDS011;3222;48.858;10.128;2023-09-18T06:32:29;4.53;;;2.40;;
6378;SDS011;3222;48.858;10.128;2023-09-18T06:34:55;5.70;;;2.55;;
6378;SDS011;3222;48.858;10.128;2023-09-18T06:37:22;3.90;;;2.33;;
6378;SDS011;3222;48.858;10.128;2023-09-18T06:39:48;5.05;;;2.63;;
6378;SDS011;3222;48.858;10.128;2023-09-18T06:42:14;2.95;;;2.08;;
6378;SDS011;3222;48.858;10.128;2023-09-18T06:44:40;6.05;;;2.40;;
6378;SDS011;3222;48.858;10.128;2023-09-18T06:47:06;4.45;;;2.30;;
6378;SDS011;3222;48.858;10.128;2023-09-18T06:49:31;4.85;;;2.88;;
6378;SDS011;3222;48.858;10.128;2023-09-18T06:51:57;3.70;;;2.10;;
6378;SDS011;3222;48.858;10.128;2023-09-18T06:54:23;6.80;;;2.35;;
6378;SDS011;3222;48.858;10.128;2023-09-18T06:56:49;2.38;;;1.73;;
6378;SDS011;3222;48.858;10.128;2023-09-18T06:59:15;3.70;;;2.08;;
6378;SDS011;3222;48.858;10.128;2023-09-18T07:01:40;6.38;;;2.33;;
6378;SDS011;3222;48.858;10.128;2023-09-18T07:04:07;7.43;;;2.22;;
6378;SDS011;3222;48.858;10.128;2023-09-18T07:06:33;5.50;;;2.35;;
6378;SDS011;3222;48.858;10.128;2023-09-18T07:08:59;4.03;;;2.20;;
6378;SDS011;3222;48.858;10.128;2023-09-18T07:11:24;4.07;;;2.20;;
6378;SDS011;3222;48.858;10.128;2023-09-18T07:13:50;4.55;;;1.80;;
6378;SDS011;3222;48.858;10.128;2023-09-18T07:16:16;2.97;;;2.08;;
6378;SDS011;3222;48.858;10.128;2023-09-18T07:18:42;9.00;;;2.40;;
6378;SDS011;3222;48.858;10.128;2023-09-18T07:21:08;8.57;;;2.20;;
6378;SDS011;3222;48.858;10.128;2023-09-18T07:23:34;12.73;;;2.58;;
6378;SDS011;3222;48.858;10.128;2023-09-18T07:26:02;5.78;;;2.28;;
6378;SDS011;3222;48.858;10.128;2023-09-18T07:28:28;10.30;;;2.58;;
6378;SDS011;3222;48.858;10.128;2023-09-18T07:30:54;6.38;;;2.10;;
6378;SDS011;3222;48.858;10.128;2023-09-18T07:33:19;5.15;;;1.88;;
6378;SDS011;3222;48.858;10.128;2023-09-18T07:35:46;6.20;;;2.20;;
6378;SDS011;3222;48.858;10.128;2023-09-18T07:38:13;6.68;;;2.65;;
6378;SDS011;3222;48.858;10.128;2023-09-18T07:40:39;7.57;;;2.30;;
6378;SDS011;3222;48.858;10.128;2023-09-18T07:43:05;6.88;;;2.10;;
6378;SDS011;3222;48.858;10.128;2023-09-18T07:45:30;8.32;;;2.42;;
6378;SDS011;3222;48.858;10.128;2023-09-18T07:47:56;7.82;;;2.20;;
6378;SDS011;3222;48.858;10.128;2023-09-18T07:50:21;5.78;;;2.10;;
6378;SDS011;3222;48.858;10.128;2023-09-18T07:52:47;4.95;;;1.95;;
6378;SDS011;3222;48.858;10.128;2023-09-18T07:55:13;7.55;;;2.28;;
6378;SDS011;3222;48.858;10.128;2023-09-18T07:57:39;7.18;;;2.25;;
6378;SDS011;3222;48.858;10.128;2023-09-18T08:00:05;6.35;;;2.20;;
6378;SDS011;3222;48.858;10.128;2023-09-18T08:02:39;6.57;;;2.33;;
6378;SDS011;3222;48.858;10.128;2023-09-18T08:05:05;7.95;;;2.30;;
6378;SDS011;3222;48.858;10.128;2023-09-18T08:07:32;6.00;;;2.50;;
6378;SDS011;3222;48.858;10.128;2023-09-18T08:09:58;7.47;;;2.40;;
6378;SDS011;3222;48.858;10.128;2023-09-18T08:12:23;8.40;;;2.38;;
6378;SDS011;3222;48.858;10.128;2023-09-18T08:14:49;8.88;;;2.22;;
6378;SDS011;3222;48.858;10.128;2023-09-18T08:17:15;9.02;;;2.53;;
6378;SDS011;3222;48.858;10.128;2023-09-18T08:19:41;7.53;;;2.72;;
6378;SDS011;3222;48.858;10.128;2023-09-18T08:22:09;4.68;;;1.90;;
6378;SDS011;3222;48.858;10.128;2023-09-18T08:24:37;3.50;;;1.65;;
6378;SDS011;3222;48.858;10.128;2023-09-18T08:27:02;7.05;;;1.98;;
6378;SDS011;3222;48.858;10.128;2023-09-18T08:29:28;5.35;;;1.92;;
6378;SDS011;3222;48.858;10.128;2023-09-18T08:31:54;10.30;;;2.10;;
6378;SDS011;3222;48.858;10.128;2023-09-18T08:34:19;10.27;;;2.47;;
6378;SDS011;3222;48.858;10.128;2023-09-18T08:36:45;6.43;;;2.38;;
6378;SDS011;3222;48.858;10.128;2023-09-18T08:39:11;8.95;;;2.20;;
6378;SDS011;3222;48.858;10.128;2023-09-18T08:41:41;6.07;;;1.83;;
6378;SDS011;3222;48.858;10.128;2023-09-18T08:44:08;5.07;;;2.13;;
6378;SDS011;3222;48.858;10.128;2023-09-18T08:46:35;6.10;;;2.05;;
6378;SDS011;3222;48.858;10.128;2023-09-18T08:49:02;5.00;;;1.88;;
6378;SDS011;3222;48.858;10.128;2023-09-18T08:51:29;4.15;;;1.80;;
6378;SDS011;3222;48.858;10.128;2023-09-18T08:53:55;6.93;;;2.63;;
6378;SDS011;3222;48.858;10.128;2023-09-18T08:56:21;4.65;;;2.53;;
6378;SDS011;3222;48.858;10.128;2023-09-18T08:58:48;6.13;;;2.40;;
6378;SDS011;3222;48.858;10.128;2023-09-18T09:01:15;6.75;;;2.25;;
6378;SDS011;3222;48.858;10.128;2023-09-18T09:03:41;5.43;;;2.35;;
6378;SDS011;3222;48.858;10.128;2023-09-18T09:06:08;10.50;;;2.53;;
6378;SDS011;3222;48.858;10.128;2023-09-18T09:08:35;3.58;;;2.03;;
6378;SDS011;3222;48.858;10.128;2023-09-18T09:11:04;7.13;;;2.10;;
6378;SDS011;3222;48.858;10.128;2023-09-18T09:13:30;4.20;;;1.85;;
6378;SDS011;3222;48.858;10.128;2023-09-18T09:15:57;2.03;;;1.50;;
6378;SDS011;3222;48.858;10.128;2023-09-18T09:18:25;14.30;;;3.10;;
6378;SDS011;3222;48.858;10.128;2023-09-18T09:20:52;9.30;;;1.60;;
6378;SDS011;3222;48.858;10.128;2023-09-18T09:23:24;6.45;;;1.30;;
6378;SDS011;3222;48.858;10.128;2023-09-18T09:25:50;3.75;;;1.40;;
6378;SDS011;3222;48.858;10.128;2023-09-18T09:28:16;3.28;;;1.40;;
6378;SDS011;3222;48.858;10.128;2023-09-18T09:30:54;5.20;;;1.80;;
6378;SDS011;3222;48.858;10.128;2023-09-18T09:33:26;5.65;;;1.70;;
6378;SDS011;3222;48.858;10.128;2023-09-18T09:35:52;7.10;;;1.80;;
6378;SDS011;3222;48.858;10.128;2023-09-18T09:38:17;4.68;;;1.85;;
6378;SDS011;3222;48.858;10.128;2023-09-18T09:40:45;6.18;;;2.08;;
6378;SDS011;3222;48.858;10.128;2023-09-18T09:43:12;6.57;;;2.15;;
6378;SDS011;3222;48.858;10.128;2023-09-18T09:45:39;3.92;;;2.45;;
6378;SDS011;3222;48.858;10.128;2023-09-18T09:48:06;7.03;;;2.60;;
6378;SDS011;3222;48.858;10.128;2023-09-18T09:50:33;6.80;;;2.58;;
6378;SDS011;3222;48.858;10.128;2023-09-18T09:52:59;3.40;;;1.70;;
6378;SDS011;3222;48.858;10.128;2023-09-18T09:57:56;3.67;;;1.40;;
6378;SDS011;3222;48.858;10.128;2023-09-18T10:00:29;3.55;;;1.30;;
6378;SDS011;3222;48.858;10.128;2023-09-18T10:02:58;5.03;;;1.95;;
6378;SDS011;3222;48.858;10.128;2023-09-18T10:05:32;3.42;;;1.50;;
6378;SDS011;3222;48.858;10.128;2023-09-18T10:08:02;5.18;;;1.63;;
6378;SDS011;3222;48.858;10.128;2023-09-18T10:10:52;6.93;;;1.73;;
6378;SDS011;3222;48.858;10.128;2023-09-18T10:13:32;4.97;;;1.52;;
6378;SDS011;3222;48.858;10.128;2023-09-18T10:16:04;5.03;;;1.20;;
6378;SDS011;3222;48.858;10.128;2023-09-18T10:18:36;6.10;;;1.75;;
6378;SDS011;3222;48.858;10.128;2023-09-18T10:24:22;2.10;;;1.42;;
6378;SDS011;3222;48.858;10.128;2023-09-18T10:27:07;3.67;;;1.65;;
6378;SDS011;3222;48.858;10.128;2023-09-18T10:29:36;4.10;;;1.48;;
6378;SDS011;3222;48.858;10.128;2023-09-18T10:32:06;2.75;;;1.25;;
6378;SDS011;3222;48.858;10.128;2023-09-18T10:34:35;5.82;;;1.40;;
6378;SDS011;3222;48.858;10.128;2023-09-18T10:37:04;2.88;;;1.27;;
6378;SDS011;3222;48.858;10.128;2023-09-18T10:39:34;2.58;;;1.17;;
6378;SDS011;3222;48.858;10.128;2023-09-18T10:42:02;2.17;;;1.55;;
6378;SDS011;3222;48.858;10.128;2023-09-18T10:44:29;3.17;;;1.33;;
6378;SDS011;3222;48.858;10.128;2023-09-18T10:46:58;4.15;;;1.30;;
6378;SDS011;3222;48.858;10.128;2023-09-18T10:49:26;3.63;;;1.40;;
6378;SDS011;3222;48.858;10.128;2023-09-18T10:51:55;1.42;;;0.80;;
6378;SDS011;3222;48.858;10.128;2023-09-18T10:54:24;2.33;;;0.85;;
6378;SDS011;3222;48.858;10.128;2023-09-18T10:56:51;3.42;;;1.33;;
6378;SDS011;3222;48.858;10.128;2023-09-18T10:59:17;5.30;;;1.02;;
6378;SDS011;3222;48.858;10.128;2023-09-18T11:01:43;0.88;;;0.70;;
6378;SDS011;3222;48.858;10.128;2023-09-18T11:04:09;3.85;;;0.93;;
6378;SDS011;3222;48.858;10.128;2023-09-18T11:09:21;3.45;;;1.10;;
6378;SDS011;3222;48.858;10.128;2023-09-18T11:12:02;0.80;;;0.77;;
6378;SDS011;3222;48.858;10.128;2023-09-18T11:17:33;1.52;;;0.90;;
6378;SDS011;3222;48.858;10.128;2023-09-18T11:22:46;1.35;;;0.80;;
6378;SDS011;3222;48.858;10.128;2023-09-18T11:25:29;4.20;;;0.93;;
6378;SDS011;3222;48.858;10.128;2023-09-18T11:28:22;2.08;;;0.88;;
6378;SDS011;3222;48.858;10.128;2023-09-18T11:30:55;1.75;;;0.70;;
6378;SDS011;3222;48.858;10.128;2023-09-18T11:33:36;2.90;;;0.70;;
6378;SDS011;3222;48.858;10.128;2023-09-18T11:36:07;1.45;;;0.60;;
6378;SDS011;3222;48.858;10.128;2023-09-18T11:38:59;0.55;;;0.50;;
6378;SDS011;3222;48.858;10.128;2023-09-18T11:41:29;2.55;;;0.80;;
6378;SDS011;3222;48.858;10.128;2023-09-18T11:46:50;2.50;;;1.10;;
6378;SDS011;3222;48.858;10.128;2023-09-18T11:49:24;4.50;;;1.05;;
6378;SDS011;3222;48.858;10.128;2023-09-18T11:51:53;1.63;;;0.70;;
6378;SDS011;3222;48.858;10.128;2023-09-18T11:54:19;1.93;;;0.83;;
6378;SDS011;3222;48.858;10.128;2023-09-18T11:56:46;1.90;;;0.80;;
6378;SDS011;3222;48.858;10.128;2023-09-18T11:59:12;0.60;;;0.50;;
6378;SDS011;3222;48.858;10.128;2023-09-18T12:01:38;1.52;;;0.60;;
6378;SDS011;3222;48.858;10.128;2023-09-18T12:04:11;2.33;;;1.00;;
6378;SDS011;3222;48.858;10.128;2023-09-18T12:06:40;1.35;;;0.70;;
6378;SDS011;3222;48.858;10.128;2023-09-18T12:09:07;0.60;;;0.60;;
6378;SDS011;3222;48.858;10.128;2023-09-18T12:11:33;1.52;;;0.55;;
6378;SDS011;3222;48.858;10.128;2023-09-18T12:14:00;1.38;;;0.70;;
6378;SDS011;3222;48.858;10.128;2023-09-18T12:16:29;1.73;;;0.55;;
6378;SDS011;3222;48.858;10.128;2023-09-18T12:18:55;1.90;;;0.85;;
6378;SDS011;3222;48.858;10.128;2023-09-18T12:21:22;2.15;;;1.00;;
6378;SDS011;3222;48.858;10.128;2023-09-18T12:23:48;3.13;;;0.97;;
6378;SDS011;3222;48.858;10.128;2023-09-18T12:26:16;0.83;;;0.67;;
6378;SDS011;3222;48.858;10.128;2023-09-18T12:28:44;2.10;;;0.80;;
6378;SDS011;3222;48.858;10.128;2023-09-18T12:31:11;1.70;;;0.60;;
6378;SDS011;3222;48.858;10.128;2023-09-18T12:33:37;2.42;;;1.27;;
6378;SDS011;3222;48.858;10.128;2023-09-18T12:36:04;2.23;;;0.73;;
6378;SDS011;3222;48.858;10.128;2023-09-18T12:38:31;3.13;;;1.07;;
6378;SDS011;3222;48.858;10.128;2023-09-18T12:40:58;1.38;;;0.80;;
6378;SDS011;3222;48.858;10.128;2023-09-18T12:43:40;1.23;;;0.80;;
6378;SDS011;3222;48.858;10.128;2023-09-18T12:46:07;1.40;;;0.73;;
6378;SDS011;3222;48.858;10.128;2023-09-18T12:48:37;2.13;;;0.90;;
6378;SDS011;3222;48.858;10.128;2023-09-18T12:51:07;1.67;;;0.93;;
6378;SDS011;3222;48.858;10.128;2023-09-18T12:53:33;3.67;;;1.40;;
6378;SDS011;3222;48.858;10.128;2023-09-18T12:56:11;1.23;;;0.80;;
6378;SDS011;3222;48.858;10.128;2023-09-18T12:58:38;2.03;;;1.20;;
6378;SDS011;3222;48.858;10.128;2023-09-18T13:01:05;2.23;;;1.10;;
6378;SDS011;3222;48.858;10.128;2023-09-18T13:03:43;0.83;;;0.80;;
6378;SDS011;3222;48.858;10.128;2023-09-18T13:06:10;1.37;;;0.90;;
6378;SDS011;3222;48.858;10.128;2023-09-18T13:08:37;2.27;;;1.00;;
6378;SDS011;3222;48.858;10.128;2023-09-18T13:11:03;2.47;;;1.00;;
6378;SDS011;3222;48.858;10.128;2023-09-18T13:13:31;5.35;;;1.67;;
6378;SDS011;3222;48.858;10.128;2023-09-18T13:15:57;1.30;;;0.70;;
6378;SDS011;3222;48.858;10.128;2023-09-18T13:18:24;1.40;;;1.30;;
6378;SDS011;3222;48.858;10.128;2023-09-18T13:20:51;1.20;;;1.07;;
6378;SDS011;3222;48.858;10.128;2023-09-18T13:23:17;2.90;;;0.93;;
6378;SDS011;3222;48.858;10.128;2023-09-18T13:25:43;2.35;;;1.00;;
6378;SDS011;3222;48.858;10.128;2023-09-18T13:28:11;2.65;;;0.77;;
6378;SDS011;3222;48.858;10.128;2023-09-18T13:30:38;1.97;;;1.07;;
6378;SDS011;3222;48.858;10.128;2023-09-18T13:33:12;0.97;;;0.80;;
6378;SDS011;3222;48.858;10.128;2023-09-18T13:35:42;1.13;;;1.00;;
6378;SDS011;3222;48.858;10.128;2023-09-18T13:38:09;1.38;;;0.90;;
6378;SDS011;3222;48.858;10.128;2023-09-18T13:40:39;1.05;;;0.77;;
6378;SDS011;3222;48.858;10.128;2023-09-18T13:43:09;1.80;;;1.00;;
6378;SDS011;3222;48.858;10.128;2023-09-18T13:45:36;1.25;;;1.00;;
6378;SDS011;3222;48.858;10.128;2023-09-18T13:48:03;3.95;;;0.90;;
6378;SDS011;3222;48.858;10.128;2023-09-18T13:50:29;1.23;;;0.80;;
6378;SDS011;3222;48.858;10.128;2023-09-18T13:52:55;0.80;;;0.80;;
6378;SDS011;3222;48.858;10.128;2023-09-18T13:55:21;1.63;;;0.80;;
6378;SDS011;3222;48.858;10.128;2023-09-18T13:57:47;5.20;;;0.90;;
6378;SDS011;3222;48.858;10.128;2023-09-18T14:00:13;1.10;;;0.90;;
6378;SDS011;3222;48.858;10.128;2023-09-18T14:02:39;1.60;;;1.03;;
6378;SDS011;3222;48.858;10.128;2023-09-18T14:05:06;1.58;;;1.02;;
6378;SDS011;3222;48.858;10.128;2023-09-18T14:07:33;1.27;;;0.82;;
6378;SDS011;3222;48.858;10.128;2023-09-18T14:09:59;1.37;;;1.00;;
6378;SDS011;3222;48.858;10.128;2023-09-18T14:12:28;1.60;;;0.90;;
6378;SDS011;3222;48.858;10.128;2023-09-18T14:14:57;2.67;;;1.00;;
6378;SDS011;3222;48.858;10.128;2023-09-18T14:17:23;1.33;;;0.82;;
6378;SDS011;3222;48.858;10.128;2023-09-18T14:19:48;0.90;;;0.90;;
6378;SDS011;3222;48.858;10.128;2023-09-18T14:22:14;2.55;;;1.00;;
6378;SDS011;3222;48.858;10.128;2023-09-18T14:24:40;2.13;;;0.90;;
6378;SDS011;3222;48.858;10.128;2023-09-18T14:27:06;1.13;;;1.00;;
6378;SDS011;3222;48.858;10.128;2023-09-18T14:29:32;2.70;;;1.30;;
6378;SDS011;3222;48.858;10.128;2023-09-18T14:32:01;1.48;;;1.20;;
6378;SDS011;3222;48.858;10.128;2023-09-18T14:34:28;2.60;;;1.13;;
6378;SDS011;3222;48.858;10.128;2023-09-18T14:36:55;6.07;;;1.30;;
6378;SDS011;3222;48.858;10.128;2023-09-18T14:39:21;2.17;;;1.00;;
6378;SDS011;3222;48.858;10.128;2023-09-18T14:41:47;1.20;;;1.10;;
6378;SDS011;3222;48.858;10.128;2023-09-18T14:44:13;1.90;;;1.30;;
6378;SDS011;3222;48.858;10.128;2023-09-18T14:46:39;2.43;;;1.20;;
6378;SDS011;3222;48.858;10.128;2023-09-18T14:49:05;2.03;;;1.10;;
6378;SDS011;3222;48.858;10.128;2023-09-18T14:51:34;1.98;;;1.15;;
6378;SDS011;3222;48.858;10.128;2023-09-18T14:54:01;2.00;;;1.10;;
6378;SDS011;3222;48.858;10.128;2023-09-18T14:56:29;3.03;;;1.27;;
6378;SDS011;3222;48.858;10.128;2023-09-18T14:58:55;1.73;;;1.30;;
6378;SDS011;3222;48.858;10.128;2023-09-18T15:01:21;1.73;;;1.13;;
6378;SDS011;3222;48.858;10.128;2023-09-18T15:03:47;1.73;;;1.17;;
6378;SDS011;3222;48.858;10.128;2023-09-18T15:06:14;1.93;;;1.20;;
6378;SDS011;3222;48.858;10.128;2023-09-18T15:08:40;1.63;;;1.10;;
6378;SDS011;3222;48.858;10.128;2023-09-18T15:11:06;2.57;;;1.10;;
6378;SDS011;3222;48.858;10.128;2023-09-18T15:13:32;1.17;;;1.10;;
6378;SDS011;3222;48.858;10.128;2023-09-18T15:16:00;3.13;;;1.40;;
6378;SDS011;3222;48.858;10.128;2023-09-18T15:18:28;3.33;;;1.40;;
6378;SDS011;3222;48.858;10.128;2023-09-18T15:20:54;2.00;;;1.50;;
6378;SDS011;3222;48.858;10.128;2023-09-18T15:23:24;2.57;;;1.30;;
6378;SDS011;3222;48.858;10.128;2023-09-18T15:25:52;2.23;;;1.00;;